createdAt,value
2022-09-04T00:00:07.049Z,2.90
2022-09-04T00:03:03.359Z,3.40
2022-09-04T00:05:38.063Z,3.90
2022-09-04T00:08:24.365Z,3.50
2022-09-04T00:10:57.333Z,3.30
2022-09-04T00:13:28.518Z,3.43
2022-09-04T00:16:03.279Z,3.73
2022-09-04T00:18:36.366Z,3.30
2022-09-04T00:21:10.801Z,3.60
2022-09-04T00:23:44.801Z,3.30
2022-09-04T00:26:20.962Z,3.27
2022-09-04T00:28:51.802Z,3.53
2022-09-04T00:31:27.327Z,3.70
2022-09-04T00:34:07.243Z,3.70
2022-09-04T00:36:42.817Z,3.70
2022-09-04T00:39:16.836Z,4.10
2022-09-04T00:41:59.372Z,4.67
2022-09-04T00:44:41.787Z,4.13
2022-09-04T00:47:42.296Z,4.23
2022-09-04T00:50:30.108Z,5.37
2022-09-04T00:53:28.942Z,6.60
2022-09-04T00:56:08.587Z,5.03
2022-09-04T00:59:02.669Z,5.83
2022-09-04T01:01:30.989Z,5.97
2022-09-04T01:04:23.363Z,5.30
2022-09-04T01:07:03.541Z,4.87
2022-09-04T01:09:48.542Z,5.37
2022-09-04T01:12:30.867Z,4.73
2022-09-04T01:15:12.180Z,4.47
2022-09-04T01:17:48.760Z,4.63
2022-09-04T01:20:27.792Z,4.60
2022-09-04T01:23:39.857Z,5.00
2022-09-04T01:26:20.577Z,4.27
2022-09-04T01:29:02.111Z,4.37
2022-09-04T01:31:39.933Z,4.63
2022-09-04T01:34:26.736Z,4.50
2022-09-04T01:36:59.865Z,4.73
2022-09-04T01:39:31.955Z,4.43
2022-09-04T01:42:06.957Z,4.53
2022-09-04T01:44:34.687Z,4.63
2022-09-04T01:47:12.187Z,4.50
2022-09-04T01:49:46.834Z,4.33
2022-09-04T01:52:36.500Z,4.20
2022-09-04T01:55:14.721Z,4.00
2022-09-04T01:57:55.815Z,3.60
2022-09-04T02:00:25.753Z,4.60
2022-09-04T02:03:02.308Z,4.30
2022-09-04T02:05:44.322Z,4.20
2022-09-04T02:08:29.893Z,4.03
2022-09-04T02:11:04.103Z,4.47
2022-09-04T02:13:43.645Z,3.90
2022-09-04T02:16:16.273Z,4.00
2022-09-04T02:18:52.108Z,3.90
2022-09-04T02:21:28.903Z,4.93
2022-09-04T02:24:06.704Z,3.87
2022-09-04T02:26:41.667Z,4.10
2022-09-04T02:29:21.999Z,4.10
2022-09-04T02:31:57.157Z,4.10
2022-09-04T02:34:38.312Z,4.20
2022-09-04T02:37:14.840Z,4.00
2022-09-04T02:39:55.485Z,3.47
2022-09-04T02:42:32.252Z,3.93
2022-09-04T02:45:14.490Z,4.17
2022-09-04T02:47:49.944Z,3.33
2022-09-04T02:50:30.145Z,3.53
2022-09-04T02:53:10.354Z,4.10
2022-09-04T02:55:54.643Z,3.80
2022-09-04T02:58:39.631Z,4.13
2022-09-04T03:01:15.918Z,3.70
2022-09-04T03:03:49.666Z,3.60
2022-09-04T03:06:23.805Z,3.70
2022-09-04T03:08:58.597Z,4.20
2022-09-04T03:11:36.040Z,3.80
2022-09-04T03:14:10.326Z,3.40
2022-09-04T03:16:44.266Z,4.40
2022-09-04T03:19:19.649Z,3.60
2022-09-04T03:21:53.450Z,3.60
2022-09-04T03:24:29.147Z,3.23
2022-09-04T03:27:02.566Z,3.87
2022-09-04T03:29:39.347Z,3.90
2022-09-04T03:32:17.860Z,3.83
2022-09-04T03:34:53.405Z,3.80
2022-09-04T03:37:38.688Z,3.27
2022-09-04T03:40:30.051Z,3.47
2022-09-04T03:43:14.483Z,3.90
2022-09-04T03:45:52.323Z,4.00
2022-09-04T03:48:33.694Z,3.23
2022-09-04T03:51:11.690Z,3.77
2022-09-04T03:53:43.464Z,3.70
2022-09-04T03:56:27.881Z,3.50
2022-09-04T03:59:03.814Z,4.10
2022-09-04T04:01:43.205Z,3.50
2022-09-04T04:04:44.071Z,3.23
2022-09-04T04:07:24.974Z,3.70
2022-09-04T04:10:07.033Z,3.57
2022-09-04T04:12:51.519Z,3.40
2022-09-04T04:15:31.274Z,3.83
2022-09-04T04:18:31.287Z,3.90
2022-09-04T04:21:07.363Z,3.60
2022-09-04T04:24:18.772Z,3.60
2022-09-04T04:26:58.006Z,4.03
2022-09-04T04:29:50.837Z,3.43
2022-09-04T04:32:47.437Z,3.90
2022-09-04T04:35:26.144Z,3.93
2022-09-04T04:38:09.467Z,3.80
2022-09-04T04:40:52.437Z,3.70
2022-09-04T04:43:27.392Z,3.70
2022-09-04T04:46:02.786Z,3.53
2022-09-04T04:48:57.647Z,3.90
2022-09-04T04:51:54.532Z,4.20
2022-09-04T04:54:43.198Z,3.97
2022-09-04T04:57:23.200Z,3.90
2022-09-04T04:59:58.247Z,4.03
2022-09-04T05:02:31.320Z,3.90
2022-09-04T05:05:03.674Z,3.77
2022-09-04T05:07:38.926Z,4.23
2022-09-04T05:10:17.691Z,3.73
2022-09-04T05:13:01.540Z,3.30
2022-09-04T05:15:48.492Z,4.07
2022-09-04T05:18:34.688Z,4.23
2022-09-04T05:21:11.561Z,3.80
2022-09-04T05:23:45.325Z,4.00
2022-09-04T05:26:23.176Z,3.77
2022-09-04T05:29:00.449Z,3.80
2022-09-04T05:31:40.285Z,3.63
2022-09-04T05:34:14.317Z,3.70
2022-09-04T05:36:50.140Z,4.40
2022-09-04T05:39:27.496Z,3.60
2022-09-04T05:42:12.359Z,3.87
2022-09-04T05:44:52.379Z,4.17
2022-09-04T05:47:32.788Z,3.37
2022-09-04T05:50:16.112Z,3.80
2022-09-04T05:53:09.542Z,4.77
2022-09-04T05:56:09.807Z,4.47
2022-09-04T05:59:02.868Z,4.77
2022-09-04T06:01:52.152Z,4.27
2022-09-04T06:04:46.833Z,4.03
2022-09-04T06:07:22.868Z,4.10
2022-09-04T06:10:00.966Z,3.70
2022-09-04T06:12:57.912Z,4.17
2022-09-04T06:15:45.588Z,4.03
2022-09-04T06:18:38.568Z,3.90
2022-09-04T06:21:25.564Z,4.10
2022-09-04T06:24:19.427Z,4.43
2022-09-04T06:27:02.686Z,4.43
2022-09-04T06:29:53.118Z,4.00
2022-09-04T06:32:54.108Z,4.43
2022-09-04T06:35:33.350Z,4.67
2022-09-04T06:38:26.163Z,4.23
2022-09-04T06:41:12.738Z,4.03
2022-09-04T06:43:49.409Z,4.70
2022-09-04T06:46:29.534Z,4.80
2022-09-04T06:49:08.593Z,4.27
2022-09-04T06:51:48.803Z,3.87
2022-09-04T06:54:32.252Z,3.70
2022-09-04T06:57:20.644Z,4.30
2022-09-04T07:00:07.495Z,4.00
2022-09-04T07:02:52.148Z,4.37
2022-09-04T07:05:32.206Z,4.57
2022-09-04T07:08:10.799Z,4.63
2022-09-04T07:10:42.567Z,4.60
2022-09-04T07:13:41.222Z,4.60
2022-09-04T07:16:44.789Z,4.90
2022-09-04T07:19:43.296Z,4.50
2022-09-04T07:22:31.291Z,4.30
2022-09-04T07:25:11.945Z,4.10
2022-09-04T07:27:52.711Z,4.07
2022-09-04T07:30:22.752Z,3.80
2022-09-04T07:32:55.703Z,4.63
2022-09-04T07:35:32.821Z,3.80
2022-09-04T07:38:10.825Z,4.67
2022-09-04T07:40:43.595Z,4.00
2022-09-04T07:43:21.382Z,4.20
2022-09-04T07:45:58.696Z,3.90
2022-09-04T07:48:35.404Z,4.53
2022-09-04T07:51:10.635Z,3.70
2022-09-04T07:54:06.438Z,3.43
2022-09-04T07:56:54.943Z,3.40
2022-09-04T07:59:40.481Z,3.90
2022-09-04T08:02:39.154Z,3.90
2022-09-04T08:05:31.132Z,3.20
2022-09-04T08:08:52.772Z,3.03
2022-09-04T08:11:48.461Z,3.30
2022-09-04T08:14:27.962Z,2.67
2022-09-04T08:17:21.436Z,2.50
2022-09-04T08:19:59.892Z,2.17
2022-09-04T08:22:38.400Z,2.47
2022-09-04T08:25:21.139Z,2.67
2022-09-04T08:28:09.569Z,3.17
2022-09-04T08:30:44.525Z,2.70
2022-09-04T08:33:32.987Z,2.60
2022-09-04T08:36:04.218Z,2.17
2022-09-04T08:38:46.266Z,2.40
2022-09-04T08:41:49.454Z,2.20
2022-09-04T08:45:06.961Z,1.93
2022-09-04T08:48:09.276Z,3.50
2022-09-04T08:51:09.990Z,2.33
2022-09-04T08:54:20.413Z,2.60
2022-09-04T08:57:03.035Z,2.20
2022-09-04T09:00:05.561Z,2.60
2022-09-04T09:02:59.091Z,2.30
2022-09-04T09:06:19.226Z,2.30
2022-09-04T09:09:21.150Z,2.23
2022-09-04T09:12:41.425Z,2.27
2022-09-04T09:15:50.184Z,2.40
2022-09-04T09:18:40.577Z,2.40
2022-09-04T09:21:11.506Z,2.27
2022-09-04T09:23:45.887Z,2.57
2022-09-04T09:26:26.557Z,2.60
2022-09-04T09:29:34.070Z,2.20
2022-09-04T09:32:31.036Z,2.03
2022-09-04T09:35:24.384Z,2.20
2022-09-04T09:38:34.797Z,2.20
2022-09-04T09:41:54.246Z,2.10
2022-09-04T09:45:00.091Z,2.40
2022-09-04T09:48:15.219Z,2.30
2022-09-04T09:51:28.469Z,2.07
2022-09-04T09:54:22.945Z,1.80
2022-09-04T09:57:33.857Z,1.60
2022-09-04T10:00:08.909Z,1.63
2022-09-04T10:03:16.146Z,1.77
2022-09-04T10:06:25.881Z,2.10
2022-09-04T10:09:29.674Z,2.30
2022-09-04T10:12:24.933Z,2.40
2022-09-04T10:15:16.579Z,2.37
2022-09-04T10:18:23.132Z,2.00
2022-09-04T10:21:20.793Z,1.80
2022-09-04T10:24:23.777Z,1.70
2022-09-04T10:27:19.423Z,2.10
2022-09-04T10:30:04.320Z,1.63
2022-09-04T10:32:59.009Z,1.73
2022-09-04T10:35:32.239Z,1.83
2022-09-04T10:38:20.917Z,1.60
2022-09-04T10:41:18.111Z,1.90
2022-09-04T10:44:09.334Z,2.27
2022-09-04T10:46:47.977Z,1.90
2022-09-04T10:49:39.097Z,1.80
2022-09-04T10:52:40.035Z,1.80
2022-09-04T10:55:26.649Z,1.73
2022-09-04T10:58:22.764Z,1.70
2022-09-04T11:01:05.429Z,1.50
2022-09-04T11:03:58.824Z,1.90
2022-09-04T11:06:52.801Z,1.53
2022-09-04T11:09:44.726Z,2.10
2022-09-04T11:12:41.032Z,1.90
2022-09-04T11:15:41.475Z,1.77
2022-09-04T11:18:40.609Z,1.77
2022-09-04T11:21:47.935Z,1.50
2022-09-04T11:25:04.374Z,1.77
2022-09-04T11:28:06.677Z,1.60
2022-09-04T11:30:55.977Z,1.70
2022-09-04T11:33:56.222Z,2.30
2022-09-04T11:36:58.926Z,2.33
2022-09-04T11:39:56.112Z,2.07
2022-09-04T11:42:35.387Z,1.53
2022-09-04T11:45:29.424Z,1.50
2022-09-04T11:48:29.044Z,1.67
2022-09-04T11:51:22.903Z,1.80
2022-09-04T11:54:18.560Z,1.57
2022-09-04T11:57:04.102Z,1.83
2022-09-04T12:00:05.987Z,1.80
2022-09-04T12:03:03.308Z,1.90
2022-09-04T12:05:45.712Z,1.90
2022-09-04T12:08:40.215Z,2.07
2022-09-04T12:11:37.086Z,1.93
2022-09-04T12:14:19.778Z,1.97
2022-09-04T12:17:15.617Z,1.80
2022-09-04T12:20:15.043Z,1.90
2022-09-04T12:23:13.893Z,1.90
2022-09-04T12:26:05.334Z,2.30
2022-09-04T12:29:06.693Z,2.00
2022-09-04T12:32:02.038Z,1.87
2022-09-04T12:34:55.784Z,1.60
2022-09-04T12:37:43.710Z,1.60
2022-09-04T12:40:34.543Z,1.43
2022-09-04T12:43:21.241Z,1.40
2022-09-04T12:46:04.486Z,1.50
2022-09-04T12:48:42.158Z,1.40
2022-09-04T12:51:14.555Z,1.50
2022-09-04T12:54:10.414Z,1.67
2022-09-04T12:56:49.606Z,1.50
2022-09-04T12:59:47.326Z,1.20
2022-09-04T13:02:28.803Z,1.80
2022-09-04T13:05:06.573Z,2.13
2022-09-04T13:07:49.055Z,1.83
2022-09-04T13:10:26.941Z,1.53
2022-09-04T13:13:06.153Z,1.30
2022-09-04T13:15:46.935Z,2.20
2022-09-04T13:18:34.851Z,1.60
2022-09-04T13:21:16.372Z,1.70
2022-09-04T13:24:12.289Z,1.60
2022-09-04T13:26:56.441Z,1.40
2022-09-04T13:29:33.314Z,1.67
2022-09-04T13:32:27.477Z,1.70
2022-09-04T13:35:16.013Z,1.90
2022-09-04T13:38:02.779Z,1.77
2022-09-04T13:40:55.624Z,1.50
2022-09-04T13:43:49.967Z,1.70
2022-09-04T13:46:22.446Z,2.03
2022-09-04T13:48:56.905Z,1.97
2022-09-04T13:51:30.936Z,2.03
2022-09-04T13:54:07.842Z,1.60
2022-09-04T13:56:44.564Z,1.43
2022-09-04T13:59:18.259Z,1.83
2022-09-04T14:01:50.401Z,1.47
2022-09-04T14:04:26.367Z,2.13
2022-09-04T14:07:06.217Z,2.17
2022-09-04T14:09:39.891Z,1.70
2022-09-04T14:12:42.670Z,1.60
2022-09-04T14:15:44.868Z,1.43
2022-09-04T14:18:24.647Z,1.70
2022-09-04T14:21:01.544Z,1.80
2022-09-04T14:23:47.194Z,1.60
2022-09-04T14:26:26.823Z,1.90
2022-09-04T14:29:02.764Z,2.00
2022-09-04T14:31:46.700Z,2.00
2022-09-04T14:34:29.596Z,1.70
2022-09-04T14:37:08.021Z,2.00
2022-09-04T14:39:44.436Z,1.87
2022-09-04T14:42:35.056Z,1.90
2022-09-04T14:45:25.709Z,1.90
2022-09-04T14:47:57.137Z,1.97
2022-09-04T14:50:30.315Z,1.90
2022-09-04T14:53:03.637Z,2.20
2022-09-04T14:55:33.200Z,1.80
2022-09-04T14:58:10.454Z,2.00
2022-09-04T15:00:58.796Z,1.50
2022-09-04T15:03:34.626Z,1.70
2022-09-04T15:06:16.064Z,1.87
2022-09-04T15:08:46.357Z,1.50
2022-09-04T15:11:31.616Z,1.50
2022-09-04T15:14:07.440Z,1.80
2022-09-04T15:16:55.778Z,1.77
2022-09-04T15:19:41.118Z,2.10
2022-09-04T15:22:13.694Z,1.87
2022-09-04T15:24:53.457Z,1.60
2022-09-04T15:27:28.485Z,1.67
2022-09-04T15:30:05.285Z,2.13
2022-09-04T15:32:39.763Z,2.00
2022-09-04T15:35:14.450Z,1.80
2022-09-04T15:37:48.268Z,1.97
2022-09-04T15:40:29.593Z,1.83
2022-09-04T15:43:13.968Z,1.67
2022-09-04T15:45:46.778Z,2.03
2022-09-04T15:48:38.868Z,2.17
2022-09-04T15:51:20.728Z,1.93
2022-09-04T15:54:08.785Z,1.90
2022-09-04T15:56:45.527Z,1.57
2022-09-04T15:59:18.275Z,2.30
2022-09-04T16:01:53.139Z,2.37
2022-09-04T16:04:30.887Z,1.60
2022-09-04T16:07:23.462Z,1.90
2022-09-04T16:09:56.673Z,1.80
2022-09-04T16:12:30.712Z,2.00
2022-09-04T16:15:04.413Z,2.63
2022-09-04T16:17:40.960Z,2.00
2022-09-04T16:20:20.209Z,1.83
2022-09-04T16:22:52.486Z,1.80
2022-09-04T16:25:29.012Z,2.40
2022-09-04T16:28:04.786Z,1.80
2022-09-04T16:30:38.406Z,1.90
2022-09-04T16:33:20.473Z,2.10
2022-09-04T16:36:00.145Z,2.03
2022-09-04T16:38:32.470Z,2.03
2022-09-04T16:41:06.045Z,2.20
2022-09-04T16:43:35.564Z,2.20
2022-09-04T16:46:14.856Z,2.23
2022-09-04T16:48:51.878Z,2.00
2022-09-04T16:51:40.583Z,2.33
2022-09-04T16:54:18.549Z,2.30
2022-09-04T16:56:50.825Z,2.47
2022-09-04T16:59:27.598Z,2.00
2022-09-04T17:02:03.435Z,2.33
2022-09-04T17:04:40.074Z,2.43
2022-09-04T17:07:18.772Z,2.40
2022-09-04T17:09:56.644Z,2.30
2022-09-04T17:12:44.203Z,2.30
2022-09-04T17:15:26.907Z,2.43
2022-09-04T17:17:56.314Z,2.70
2022-09-04T17:21:59.691Z,2.33
2022-09-04T17:28:51.207Z,2.47
2022-09-04T17:29:11.131Z,2.40
2022-09-04T17:29:34.400Z,2.37
2022-09-04T17:32:33.599Z,2.20
2022-09-04T17:40:43.843Z,2.43
2022-09-04T17:40:49.729Z,2.50
2022-09-04T17:41:39.477Z,2.10
2022-09-04T17:44:09.339Z,2.47
2022-09-04T17:46:42.072Z,2.40
2022-09-04T17:49:17.508Z,2.50
2022-09-04T17:51:51.806Z,2.70
2022-09-04T17:54:28.703Z,2.80
2022-09-04T17:57:02.361Z,2.37
2022-09-04T17:59:40.444Z,2.50
2022-09-04T18:02:15.181Z,2.87
2022-09-04T18:04:50.803Z,2.20
2022-09-04T18:08:06.749Z,2.53
2022-09-04T18:10:23.355Z,2.60
2022-09-04T18:13:00.650Z,2.70
2022-09-04T18:15:35.076Z,2.80
2022-09-04T18:18:13.428Z,3.10
2022-09-04T18:20:51.807Z,2.77
2022-09-04T18:23:51.244Z,2.70
2022-09-04T18:26:40.081Z,3.40
2022-09-04T18:31:48.264Z,3.80
2022-09-04T18:37:18.975Z,3.40
2022-09-04T18:37:25.484Z,4.00
2022-09-04T18:38:20.488Z,4.00
2022-09-04T18:46:15.061Z,3.20
2022-09-04T18:50:25.534Z,3.07
2022-09-04T18:50:33.641Z,3.20
2022-09-04T18:50:33.817Z,2.53
2022-09-04T18:52:19.782Z,2.43
2022-09-04T18:54:54.139Z,2.80
2022-09-04T18:57:29.126Z,3.47
2022-09-04T19:00:08.682Z,3.00
2022-09-04T19:02:53.000Z,3.63
2022-09-04T19:05:24.228Z,4.07
2022-09-04T19:07:57.129Z,4.23
2022-09-04T19:10:31.196Z,3.60
2022-09-04T19:13:04.688Z,3.60
2022-09-04T19:15:49.023Z,3.93
2022-09-04T19:18:28.178Z,3.90
2022-09-04T19:21:18.411Z,3.57
2022-09-04T19:23:50.438Z,3.90
2022-09-04T19:26:27.302Z,4.53
2022-09-04T19:29:00.494Z,3.50
2022-09-04T19:31:36.104Z,4.07
2022-09-04T19:34:13.855Z,4.40
2022-09-04T19:36:48.671Z,4.17
2022-09-04T19:45:55.353Z,4.23
2022-09-04T19:46:11.146Z,4.40
2022-09-04T19:46:13.317Z,4.30
2022-09-04T19:48:20.828Z,3.73
2022-09-04T19:53:23.264Z,4.20
2022-09-04T19:53:52.126Z,4.00
2022-09-04T19:56:30.010Z,4.10
2022-09-04T19:59:05.861Z,3.97
2022-09-04T20:01:43.281Z,3.70
2022-09-04T20:04:20.011Z,4.60
2022-09-04T20:06:51.100Z,3.43
2022-09-04T20:09:26.277Z,4.10
2022-09-04T20:11:58.939Z,3.43
2022-09-04T20:14:36.575Z,3.63
2022-09-04T20:17:14.649Z,4.60
2022-09-04T20:19:45.978Z,3.70
2022-09-04T20:22:29.514Z,3.80
2022-09-04T20:25:25.927Z,3.70
2022-09-04T20:28:01.322Z,3.90
2022-09-04T20:30:32.219Z,4.30
2022-09-04T20:33:04.047Z,3.63
2022-09-04T20:35:40.119Z,4.00
2022-09-04T20:38:22.922Z,3.90
2022-09-04T20:40:55.390Z,3.60
2022-09-04T20:43:31.718Z,3.63
2022-09-04T20:52:40.549Z,3.30
2022-09-04T20:52:57.619Z,4.20
2022-09-04T20:53:00.568Z,3.60
2022-09-04T20:55:32.597Z,4.10
2022-09-04T21:03:07.378Z,3.80
2022-09-04T21:03:09.649Z,4.23
2022-09-04T21:04:11.872Z,4.13
2022-09-04T21:06:48.404Z,4.10
2022-09-04T21:09:54.974Z,4.03
2022-09-04T21:12:31.243Z,4.30
2022-09-04T21:15:11.252Z,3.60
2022-09-04T21:18:14.369Z,3.73
2022-09-04T21:21:30.470Z,4.30
2022-09-04T21:24:23.439Z,4.00
2022-09-04T21:27:13.567Z,3.80
2022-09-04T21:30:04.692Z,4.00
2022-09-04T21:32:53.648Z,3.83
2022-09-04T21:35:32.934Z,3.80
2022-09-04T21:38:20.094Z,4.07
2022-09-04T21:41:03.955Z,3.83
2022-09-04T21:43:49.854Z,3.90
2022-09-04T21:46:52.875Z,4.50
2022-09-04T21:49:53.759Z,3.97
2022-09-04T21:52:40.295Z,4.20
2022-09-04T21:58:26.483Z,3.57
2022-09-04T22:02:29.802Z,3.90
2022-09-04T22:02:40.289Z,3.93
2022-09-04T22:05:07.040Z,4.07
2022-09-04T22:13:08.328Z,3.33
2022-09-04T22:13:32.585Z,4.10
2022-09-04T22:13:52.449Z,3.80
2022-09-04T22:16:36.577Z,3.90
2022-09-04T22:19:23.067Z,4.20
2022-09-04T22:22:04.159Z,4.03
2022-09-04T22:24:52.588Z,3.87
2022-09-04T22:27:56.538Z,3.80
2022-09-04T22:30:49.267Z,4.30
2022-09-04T22:34:14.206Z,3.83
2022-09-04T22:37:00.571Z,4.00
2022-09-04T22:40:05.842Z,3.87
2022-09-04T22:42:42.839Z,3.83
2022-09-04T22:45:33.242Z,3.77
2022-09-04T22:48:23.820Z,3.67
2022-09-04T22:51:04.312Z,4.30
2022-09-04T22:54:01.399Z,3.70
2022-09-04T22:56:47.078Z,4.10
2022-09-04T22:59:46.319Z,4.43
2022-09-04T23:02:54.217Z,3.90
2022-09-04T23:05:48.122Z,3.60
2022-09-04T23:13:49.202Z,3.90
2022-09-04T23:13:58.765Z,3.80
2022-09-04T23:15:08.237Z,3.80
2022-09-04T23:18:49.704Z,3.83
2022-09-04T23:26:36.373Z,3.70
2022-09-04T23:26:41.689Z,3.80
2022-09-04T23:27:28.286Z,3.50
2022-09-04T23:30:25.266Z,3.33
2022-09-04T23:33:43.129Z,3.77
2022-09-04T23:36:37.330Z,4.07
2022-09-04T23:39:51.347Z,4.00
2022-09-04T23:42:35.884Z,3.63
2022-09-04T23:45:25.726Z,4.33
2022-09-04T23:48:23.810Z,3.77
2022-09-04T23:51:00.204Z,3.50
2022-09-04T23:53:36.838Z,3.60
2022-09-04T23:56:20.588Z,3.07
2022-09-04T23:59:26.524Z,3.20
